x

9442396 - La Push, Wa (lapw1) Weather Station

11:30 - Wed 1st Oct 2014 All times are PDT. -7 hours from GMT.

  • Wind
    6mph, 7mph gusts
  • Sea Temp 59°f
  • Aire Temp 54°f
  • Sea Pressure 1022.8mb
  • 9442396 - La Push, Wa
  • 9442396 - La Push, Wa

More Historic Weather Station data

Upgrade to MSW Pro to gain access to the past 30 days of data for over 8000 Wavebouys and Weather Stations around the globe.

Join Pro

Comparision Forecast

View Surf forecast
   
mié 10/01 11:30 6 7 mph 1022.8mb 59f 54f
11:24 6 7 mph - - 54f
11:18 6 7 mph - - 54f
11:12 5 7 mph - - 54f
11:06 5 6 mph 1022.9mb 59f 54f
11:00 5 6 mph 1022.8mb 58f 54f
10:36 6 8 mph - - 54f
10:30 6 7 mph 1022.8mb 58f 54f
10:24 5 6 mph 1022.8mb 58f 54f
10:18 6 7 mph 1022.7mb 58f 54f
10:12 6
mph
1022.6mb 58f 54f
10:06 5 6 mph 1022.6mb 58f 54f
10:00 5
mph
1022.7mb 58f 54f
9:36 3 6 mph 1022.6mb 58f 55f
9:30 5 7 mph 1022.7mb 58f 55f
9:24 6 7 mph 1022.6mb 58f 55f
9:18 5 6 mph 1022.6mb 58f 55f
9:12 2
mph
1022.5mb 58f 55f
9:06 1 2 mph 1022.4mb 58f 55f
9:00 1 2 mph 1022.5mb 58f 56f
8:36 1 2 mph 1022.4mb 58f 56f
8:30 1
mph
1022.5mb 58f 56f
8:24  -  1 mph 1022.4mb 58f 57f
8:18 1
mph
1022.4mb 58f 57f
8:12 1
mph
1022.4mb 58f 57f
8:06  -  1 mph 1022.4mb 58f 57f
8:00 1 2 mph 1022.3mb 58f 57f
7:24  -  mph - 58f -
7:18  -  mph - 58f -
7:12  -  mph - 58f -
7:06  -  mph - 58f -
7:00  -  mph - 58f -
6:36  -  mph - - 59f
6:30  -  mph - - 59f
6:24  -  mph - - 59f
6:18  -  mph - - 59f
6:12  -  mph - - 59f
6:06  -  mph - - 59f
6:00  -  mph - - 59f
5:36 5 6 mph 1022.7mb 58f 60f
5:30 3 5 mph 1022.6mb 58f 60f
5:24 3 5 mph 1022.4mb 58f 60f
5:18 3 5 mph 1022.6mb 58f 60f
5:12 3 5 mph 1022.7mb 58f 60f
5:06 3 5 mph 1022.7mb 58f 60f
5:00 3 5 mph 1022.4mb 58f 60f
4:36 5
mph
1022.6mb 58f 59f
4:30 5 6 mph 1022.8mb 58f 59f
4:24 5 6 mph 1022.9mb 58f 59f
4:18 5 6 mph 1022.9mb 58f 59f
4:12 6
mph
1022.9mb 58f 59f
4:06 5 6 mph 1022.8mb 58f 59f
4:00 5 6 mph 1022.7mb 58f 59f
3:36 5 6 mph 1022.7mb 58f 59f
3:30 6
mph
1022.7mb 58f 59f
3:24 5 6 mph 1022.6mb 58f 59f
3:18 5 6 mph 1022.7mb 58f 59f
3:12 5 6 mph 1022.7mb 58f 59f
3:06 5 7 mph 1022.7mb 58f 59f
3:00 6 7 mph 1022.9mb 58f 59f
2:36 6 8 mph 1023mb 58f 59f
2:30 6 7 mph 1022.9mb 58f 59f
2:24 5 7 mph 1022.9mb 58f 59f
2:18 6
mph
1023mb 58f 59f
2:12 5 6 mph 1023mb 58f 59f
2:06 5 6 mph 1023mb 58f 59f
2:00 3 6 mph 1023mb 58f 59f
1:36 6 8 mph 1023.1mb 58f 59f
1:30 6 7 mph 1023mb 58f 59f
1:24 6 8 mph 1023mb 58f 59f
1:18 7 9 mph 1023mb 58f 59f
1:12 7 9 mph 1023mb 58f 59f
1:06 7 10 mph 1023.1mb 58f 60f
1:00 6 7 mph 1023mb 58f 59f
12:36 3 7 mph 1023.1mb 58f 59f
12:30 3 5 mph 1023.1mb 58f 59f
12:24 3 6 mph 1023mb 58f 59f
12:18 5 6 mph 1023mb 58f 59f
12:12 3 6 mph 1022.9mb 58f 59f
12:06 3 7 mph 1022.9mb 58f 58f
12:00 6 7 mph 1023.1mb 58f 58f
11:36 6 7 mph 1023.2mb 58f 58f
11:30 6 7 mph 1023.3mb 58f 58f
11:24 5 7 mph 1023.3mb 58f 58f
11:18 5 6 mph 1023.2mb 58f 58f
11:12 5 7 mph 1023.2mb 58f 58f
11:06 3 6 mph 1023.2mb 58f 57f
11:00 5 6 mph 1023.2mb 58f 57f
10:36 2 6 mph 1023.3mb 58f 56f
10:30  -  1 mph 1023.3mb 58f 56f
10:24  -  2 mph 1023.3mb 58f 55f
10:18  -  1 mph 1023.3mb 58f 55f
10:12  -  1 mph 1023.3mb 58f 54f
10:06 1 2 mph 1023.3mb 58f 54f
10:00 3
mph
1023.4mb 58f 53f
9:36 5 6 mph 1023.2mb 58f 52f
9:30 3 6 mph 1023.2mb 58f 51f
9:24 5 7 mph 1023.2mb 58f 52f
9:18 3 6 mph 1023.2mb 58f 51f
9:12 5 6 mph 1023.1mb 58f 51f
9:06 5 6 mph 1023.1mb 58f 51f
9:00 5 7 mph 1023.2mb 58f 51f
8:36 6 7 mph 1023.3mb 58f 50f
8:30 5 7 mph 1023.2mb 58f 50f
8:24 6 8 mph 1023.1mb 58f 50f
8:18 7 8 mph 1023mb 58f 49f
8:12 5 7 mph 1022.9mb 58f 49f
8:06 6 8 mph 1022.9mb 58f 49f
8:00 6 8 mph 1022.8mb 58f 49f
7:36 6 7 mph 1022.9mb 58f 49f
7:30 6 7 mph 1022.9mb 58f 49f
7:24 6 7 mph 1022.9mb 58f 49f
7:18 6
mph
1022.7mb 58f 49f
7:12 6 7 mph 1022.6mb 58f 49f
7:06 6 8 mph 1022.6mb 58f 49f
7:00 6 7 mph 1022.6mb 58f 49f
6:36 6 8 mph 1022.5mb 58f 50f
6:30 5 8 mph 1022.5mb 58f 50f
6:24 5 9 mph 1022.5mb 58f 49f
6:18 6 7 mph 1022.5mb 58f 49f
6:12 5 7 mph 1022.5mb 58f 50f
6:06 6 7 mph 1022.5mb 58f 50f
6:00 6 8 mph 1022.5mb 58f 50f
5:36 6 9 mph 1022.4mb 58f 49f
5:30 6 8 mph 1022.4mb 58f 49f
5:24 6 8 mph 1022.4mb 58f 49f
5:18 6 8 mph 1022.4mb 58f 49f
5:12 6 7 mph 1022.4mb 58f 49f
5:06 7 8 mph 1022.4mb 58f 50f
5:00 7 8 mph 1022.4mb 58f 50f
4:36 6 9 mph 1022.4mb 58f 50f
4:30 6 8 mph 1022.4mb 58f 50f
4:24 6 8 mph 1022.4mb 58f 50f
4:18 6 8 mph 1022.3mb 58f 50f
4:12 2 7 mph 1022.3mb 58f 50f
4:06 5 8 mph 1022.3mb 58f 50f
4:00 5 7 mph 1022.2mb 58f 50f
3:36 7
mph
1022.1mb 58f 51f
3:30 5 6 mph 1022.1mb 58f 51f
3:24 6
mph
1022.1mb 58f 51f
3:18 5 6 mph 1022.2mb 58f 51f
3:12 5 7 mph 1022.3mb 58f 51f
3:06 3 6 mph 1022.3mb 58f 52f
3:00 5 8 mph 1022.3mb 58f 52f
2:36 2 8 mph 1022.2mb 58f 55f
2:30 6 8 mph 1022.3mb 58f 55f
2:24 6 7 mph 1022.3mb 58f 55f
2:18 6 8 mph 1022.3mb 58f 55f
2:12 6 8 mph 1022.3mb 58f 56f
2:06 6 10 mph 1022.2mb 58f 58f
2:00 7 9 mph 1022.3mb 58f 58f
1:36 9 14 mph 1022.2mb 58f 58f
1:30 7 8 mph 1022.1mb 59f 58f
1:24 7 9 mph 1022.1mb 59f 58f
1:18 7 9 mph 1022.1mb 59f 58f
1:12 7 8 mph 1022.1mb 59f 57f
1:06 6 7 mph 1022mb 59f 56f
1:00 5 7 mph 1021.9mb 59f 55f
12:36 6 8 mph 1022.1mb 59f 56f
12:30 6 7 mph 1022.1mb 59f 56f
12:24 3 7 mph 1022.1mb 59f 55f
12:18 5 8 mph 1022.1mb 59f 56f
12:12 5 9 mph 1022mb 59f 56f
12:06 6 7 mph 1021.9mb 59f 56f
12:00 2 3 mph 1021.8mb 59f 55f
mar 09/30 11:54  -  5 mph 1021.9mb 59f 55f
11:48 1 5 mph 1021.8mb 59f 55f
11:36 3 6 mph 1021.8mb 59f 55f
11:30 2 5 mph 1021.8mb 59f 56f
11:24 1 2 mph 1021.7mb 59f 56f
11:18 2 6 mph 1021.7mb 59f 57f
11:12 3 7 mph 1021.8mb 59f 57f
11:06 5 7 mph 1021.8mb 59f 58f
11:00 6 7 mph 1021.7mb 59f 58f
10:54 6 7 mph 1021.7mb 59f 57f
10:48 3 5 mph 1021.6mb 59f 58f
10:36 6 8 mph 1021.7mb 59f 58f
10:30 6 8 mph 1021.6mb 59f 58f
10:24 6 8 mph 1021.5mb 59f 58f
10:18 7 9 mph 1021.6mb 59f 58f
10:12 6 10 mph 1021.5mb 59f 58f
10:06 7 9 mph 1021.6mb 59f 58f
10:00 7 9 mph 1021.5mb 59f 59f
9:54 7 9 mph 1021.7mb 59f 58f
9:48 6 8 mph 1021.6mb 59f 59f
9:36 7 9 mph 1021.6mb 59f 59f
9:30 7 10 mph 1021.7mb 59f 59f
9:24 8 9 mph 1021.7mb 59f 59f
9:18 7 9 mph 1021.6mb 59f 59f
9:12 8 10 mph 1021.6mb 58f 58f
9:06 8 10 mph 1021.5mb 58f 59f
9:00 6 8 mph 1021.4mb 58f 58f
8:54 6 8 mph 1021.3mb 58f 58f
8:48 7 8 mph 1021.3mb 58f 59f
8:36 6 9 mph 1021.2mb 58f 59f
8:30 7 9 mph 1021.2mb 58f 59f
8:24 7 9 mph 1021.2mb 58f 59f
8:18 8 9 mph 1021.2mb 58f 59f
8:12 8 10 mph 1021.2mb 58f 59f
8:06 7 9 mph 1021.2mb 58f 59f
8:00 7 9 mph 1021.2mb 58f 59f
7:54 8 10 mph 1021.1mb 58f 59f
7:48 8 10 mph 1021.1mb 58f 59f
7:36 9 11 mph 1021.1mb 58f 59f
7:30 9 10 mph 1021.1mb 58f 59f
7:24 6 8 mph 1021.1mb 58f 59f
7:18 7 9 mph 1021.1mb 58f 59f
7:12 7 10 mph 1021mb 58f 59f
7:06 9 11 mph 1021mb 58f 59f
7:00 8 9 mph 1020.9mb 58f 59f
6:54 6 8 mph 1020.9mb 58f 59f
6:48 6 7 mph 1020.8mb 58f 59f
6:36 5 6 mph 1020.7mb 58f 59f
6:30 5 6 mph 1020.7mb 58f 59f
6:24 5 7 mph 1020.7mb 58f 59f
6:18 6 7 mph 1020.7mb 58f 59f
6:12 5 7 mph 1020.7mb 58f 59f
6:06 6 7 mph 1020.6mb 58f 59f
6:00 6 7 mph 1020.6mb 58f 59f
5:54 6 8 mph 1020.7mb 58f 59f
5:48 7 8 mph 1020.7mb 58f 59f
5:36 7 8 mph 1020.6mb 58f 60f
5:30 7 8 mph 1020.5mb 58f 59f
5:24 7 10 mph 1020.5mb 58f 59f
5:18 8 10 mph 1020.5mb 58f 59f
5:12 8 10 mph 1020.5mb 58f 59f
5:06 8 9 mph 1020.5mb 58f 59f
5:00 8 9 mph 1020.5mb 58f 59f
4:54 8 10 mph 1020.5mb 58f 59f
4:48 8 10 mph 1020.5mb 58f 59f
4:36 9 10 mph 1020.5mb 58f 59f
3:36 8 10 mph 1020.3mb 58f 59f
3:30 10 11 mph 1020.3mb 58f 59f
3:24 10 14 mph 1020.3mb 58f 59f
3:18 11 13 mph 1020.3mb 58f 59f
3:12 11 13 mph 1020.4mb 58f 59f
3:06 13 14 mph 1020.3mb 58f 59f
3:00 9 11 mph 1020.2mb 58f 59f
2:54 9 13 mph 1020.3mb 58f 59f
2:48 9 11 mph 1020.3mb 58f 59f
2:36 9 11 mph 1020.3mb 58f 59f
2:30 8 11 mph 1020.4mb 58f 59f
2:24 9 13 mph 1020.4mb 58f 59f
2:18 9 11 mph 1020.4mb 58f 59f
2:12 8 10 mph 1020.4mb 58f 59f
2:06 9 10 mph 1020.4mb 58f 59f
2:00 8 11 mph 1020.3mb 58f 59f
1:54 10 11 mph 1020.3mb 58f 59f
1:48 8 9 mph 1020.3mb 58f 59f
1:36 7 10 mph 1020.3mb 58f 59f
1:30 8 9 mph 1020.2mb 58f 59f
1:24 8 9 mph 1020.3mb 58f 59f
1:18 8 9 mph 1020.3mb 58f 59f
1:12 9 13 mph 1020.2mb 58f 59f
1:06 8 10 mph 1020.2mb 58f 59f
1:00 9 11 mph 1020.2mb 58f 59f
12:54 9 11 mph 1020.2mb 58f 59f
12:48 8 11 mph 1020.2mb 58f 59f
12:36 8 11 mph 1020.1mb 58f 59f
12:30 7 9 mph 1020mb 58f 59f
12:24 7 9 mph 1020mb 58f 59f
12:18 7 10 mph 1019.9mb 58f 59f
12:12 7 10 mph 1019.9mb 58f 59f
12:06 7 9 mph 1019.9mb 58f 59f
12:00 7 9 mph 1019.9mb 58f 59f
11:54 8 10 mph 1019.9mb 58f 59f
11:48 7 8 mph 1019.9mb 58f 59f
11:36 6 7 mph 1019.8mb 58f 59f
11:30 5 6 mph 1019.7mb 58f 59f
11:24 5 7 mph 1019.6mb 58f 58f
11:18 6 7 mph 1019.7mb 58f 58f
11:12 6 8 mph 1019.7mb 58f 58f
11:06 7 9 mph 1019.7mb 58f 58f
11:00 8 10 mph 1019.6mb 58f 58f
10:54 6 8 mph 1019.5mb 58f 59f
10:48 6 8 mph 1019.4mb 58f 59f
10:36 7 10 mph 1019.3mb 58f 58f
10:30 8 13 mph 1019.2mb 58f 58f
10:24 10 13 mph 1019.2mb 58f 59f
10:18 7 9 mph 1019.1mb 58f 59f
10:12 6 8 mph 1019mb 58f 59f
10:06 7 9 mph 1019mb 58f 59f
10:00 7 8 mph 1019mb 58f 59f
9:54 7 9 mph 1019mb 58f 59f
9:48 7 10 mph 1018.9mb 58f 59f
9:36 9 11 mph 1018.9mb 58f 58f
9:30 8 10 mph 1018.9mb 58f 57f
9:24 3 6 mph 1018.8mb 58f 56f
9:18  -  2 mph 1018.8mb 58f 55f
9:12 1 2 mph 1018.7mb 58f 54f
9:06 1 3 mph 1018.6mb 58f 54f
9:00 1 3 mph 1018.6mb 58f 55f
8:54 2 5 mph 1018.5mb 58f 54f
8:48  -  2 mph 1018.5mb 58f 52f
8:36 2 3 mph 1018.4mb 58f 52f
8:30  -  6 mph 1018.3mb 58f 54f
8:24 5 9 mph 1018.3mb 58f 57f
8:18 7 8 mph 1018.3mb 58f 53f
8:12  -  3 mph 1018.2mb 58f 52f
8:06 3 5 mph 1018.2mb 58f 52f
8:00  -  3 mph 1018.1mb 58f 53f
7:54 1 5 mph 1018.1mb 58f 52f
7:48 3 5 mph 1018.1mb 58f 51f
7:36 1 3 mph 1018mb 58f 53f
7:30  -  2 mph 1017.9mb 58f 53f
7:24 1 2 mph 1017.8mb 58f 53f
7:18 1 3 mph 1017.8mb 58f 52f
7:12 1 2 mph 1017.8mb 58f 52f
7:06  -  3 mph 1017.7mb 58f 53f
7:00 2 7 mph 1017.7mb 58f 54f
6:54 3 7 mph 1017.7mb 58f 54f
6:48 6 8 mph 1017.7mb 58f 56f
6:36 5 7 mph 1017.6mb 58f 54f
6:30 2 8 mph 1017.6mb 58f 55f
6:24 6 8 mph 1017.6mb 58f 55f
6:18 6 9 mph 1017.5mb 58f 56f
6:12 7 9 mph 1017.5mb 58f 56f
6:06 7 10 mph 1017.5mb 58f 58f
6:00 9 13 mph 1017.5mb 58f 57f
5:54 7 13 mph 1017.4mb 58f 58f
5:48 9 11 mph 1017.4mb 58f 58f
5:36 9 11 mph 1017.3mb 58f 57f
5:30 7 9 mph 1017.2mb 58f 56f
5:24 6 10 mph 1017.1mb 58f 58f
5:18 8 11 mph 1017.1mb 58f 58f
5:12 9 11 mph 1017.1mb 58f 58f
5:06 9 11 mph 1017.1mb 58f 58f
5:00 9 10 mph 1017mb 58f 58f
4:54 9 11 mph 1017mb 58f 58f
4:48 9 13 mph 1017mb 58f 58f
4:36 10 13 mph 1016.9mb 58f 58f
4:30 9 11 mph 1016.9mb 58f 58f
4:24 9 13 mph 1016.9mb 58f 58f
4:18 10 13 mph 1016.9mb 58f 59f
4:12 10 14 mph 1016.9mb 58f 59f
4:06 10 14 mph 1016.8mb 58f 58f
4:00 11 14 mph 1016.8mb 58f 58f
3:54 11 14 mph 1016.7mb 58f 59f
3:48 10 14 mph 1016.7mb 58f 59f
3:36 9 11 mph 1016.6mb 58f 59f
3:30 8 11 mph 1016.6mb 58f 58f
3:24 8 11 mph 1016.6mb 58f 58f
3:18 7 9 mph 1016.5mb 58f 58f
3:12 8 10 mph 1016.5mb 58f 59f
3:06 7 9 mph 1016.5mb 58f 59f
3:00 7 10 mph 1016.5mb 58f 59f
2:54 8 10 mph 1016.5mb 58f 59f
2:48 8 9 mph 1016.4mb 58f 59f
2:36 6 8 mph 1016.3mb 58f 59f
2:30 6 8 mph 1016.3mb 58f 58f
2:24 6 8 mph 1016.3mb 58f 58f
2:18 6 8 mph 1016.3mb 58f 58f
2:12 6 7 mph 1016.2mb 58f 58f
2:06 6 8 mph 1016.1mb 58f 58f
2:00 5 8 mph 1016.1mb 58f 58f
1:54 6 8 mph 1016.1mb 58f 58f
1:48 6 8 mph 1016.1mb 58f 58f
1:36 6 8 mph 1016mb 58f 58f
1:30 7 9 mph 1016.1mb 58f 58f
1:24 7 9 mph 1016mb 58f 58f
1:18 7 10 mph 1016mb 58f 58f
1:12 6 9 mph 1016mb 58f 57f
1:06 5 7 mph 1015.9mb 58f 55f
1:00 1 5 mph 1015.9mb 58f 54f
12:54  -  2 mph 1015.8mb 58f 54f
12:48 1 3 mph 1015.7mb 58f 54f
12:36 1 2 mph 1015.7mb 58f 54f
12:30 2
mph
1015.6mb 58f 54f
12:24  -  2 mph 1015.6mb 58f 54f
12:18 1 2 mph 1015.6mb 58f 55f
12:12  -  1 mph 1015.6mb 58f 55f
12:06  -  2 mph 1015.5mb 58f 55f
12:00 2 3 mph 1015.5mb 59f 55f
lun 09/29 11:54 2
mph
1015.5mb 59f 55f
11:48 1
mph
1015.5mb 59f 55f
11:36 2 3 mph 1015.5mb 59f 55f
11:30  -  2 mph 1015.5mb 59f 55f
11:24 2
mph
1015.4mb 59f 56f
11:18 2 3 mph 1015.4mb 59f 55f
11:12 3
mph
1015.4mb 59f 56f
11:06 1 2 mph 1015.4mb 59f 56f
11:00  -  1 mph 1015.4mb 59f 56f
10:54  -  1 mph 1015.4mb 60f 56f
10:48  -  3 mph 1015.4mb 59f 56f
10:36  -  2 mph 1015.4mb 60f 57f
10:30  -  2 mph 1015.4mb 60f 57f
10:24  -  2 mph 1015.3mb 60f 57f
10:18  -  1 mph 1015.3mb 60f 57f
10:12  -  3 mph 1015.2mb 60f 57f
10:06 1 3 mph 1015.2mb 60f 57f
10:00 1 2 mph 1015.2mb 60f 58f
9:54 1 3 mph 1015.2mb 60f 59f
9:48 3 5 mph 1015.1mb 60f 59f
9:36 5 6 mph 1015mb 60f 59f
9:30 5 6 mph 1014.9mb 59f 59f
9:24 5 7 mph 1014.9mb 59f 59f
9:18 6 7 mph 1015mb 59f 59f
9:12 5 7 mph 1014.9mb 59f 59f
9:06 6 8 mph 1014.9mb 59f 59f
9:00 6 9 mph 1014.9mb 59f 59f
8:54 7 9 mph 1014.9mb 59f 59f
8:48 7 10 mph 1014.9mb 58f 59f
8:36 7 10 mph 1014.7mb 58f 59f
8:30 7 10 mph 1014.7mb 58f 59f
8:24 7 10 mph 1014.7mb 58f 59f
8:18 7 9 mph 1014.7mb 58f 59f
8:12 7 9 mph 1014.6mb 58f 59f
8:06 6 9 mph 1014.5mb 58f 59f
8:00 6 8 mph 1014.5mb 58f 59f
7:54 6 7 mph 1014.4mb 58f 59f
7:48 5 8 mph 1014.4mb 58f 59f
7:36 6 8 mph 1014.3mb 58f 59f
7:30 6 8 mph 1014.2mb 58f 59f
7:24 6 7 mph 1014.1mb 58f 59f
7:18 6 8 mph 1014mb 58f 59f
7:12 6 8 mph 1014mb 58f 59f
7:06 6 8 mph 1013.9mb 58f 59f
7:00 6 8 mph 1013.9mb 58f 59f
6:54 5 7 mph 1013.9mb 58f 59f
6:48 3 6 mph 1013.8mb 58f 59f
6:36 3 6 mph 1013.7mb 58f 60f
6:30 5 6 mph 1013.7mb 58f 60f
6:24 5 6 mph 1013.6mb 58f 60f
6:18 6
mph
1013.6mb 58f 60f
6:12 5 7 mph 1013.7mb 58f 60f
6:06 6 7 mph 1013.7mb 58f 60f
6:00 6
mph
1013.6mb 58f 60f
5:54 6 7 mph 1013.6mb 58f 60f
5:48 6 7 mph 1013.5mb 58f 60f
5:36 7 9 mph 1013.5mb 58f 60f
5:30 6 7 mph 1013.4mb 58f 60f
5:24 8 10 mph 1013.4mb 58f 60f
5:18 6 9 mph 1013.4mb 58f 60f
5:12 6 7 mph 1013.4mb 58f 60f
5:06 6 7 mph 1013.3mb 58f 60f
5:00 6 8 mph 1013.3mb 58f 60f
4:54 6 8 mph 1013.2mb 58f 60f
4:48 6 7 mph 1013.2mb 58f 60f
4:36 5 7 mph 1013.1mb 58f 60f
4:30 6 7 mph 1013.1mb 58f 60f
4:24 7 8 mph 1013.1mb 58f 60f
4:18 6 7 mph 1013.1mb 58f 60f
4:12 6 7 mph 1013.1mb 58f 60f
4:06 6
mph
1013.1mb 58f 60f
4:00 5 6 mph 1013.1mb 58f 60f
3:54 5 6 mph 1013mb 58f 60f
3:48 6
mph
1013mb 58f 60f
3:36 6 7 mph 1013mb 58f 60f
3:30 6 7 mph 1013mb 58f 60f
3:24 7 8 mph 1013mb 58f 60f
3:18 7 9 mph 1012.9mb 58f 59f
3:12 7 8 mph 1012.9mb 58f 59f
3:06 7 9 mph 1012.9mb 58f 59f
3:00 7 9 mph 1012.8mb 58f 59f
2:54 7 8 mph 1012.8mb 58f 59f
2:48 7 8 mph 1012.8mb 58f 59f
2:36 7 9 mph 1012.7mb 58f 59f
2:30 7 9 mph 1012.7mb 58f 59f
2:24 8 9 mph 1012.7mb 58f 59f
2:18 7 9 mph 1012.6mb 58f 59f
2:12 7 9 mph 1012.6mb 58f 59f
2:06 7 8 mph 1012.6mb 58f 59f
2:00 7 9 mph 1012.6mb 58f 59f
1:54 8 10 mph 1012.6mb 58f 59f
1:48 9 11 mph 1012.6mb 58f 59f
1:36 10 14 mph 1012.6mb 58f 59f
1:30 10 13 mph 1012.6mb 58f 59f
1:24 8 11 mph 1012.5mb 58f 59f
1:18 9 11 mph 1012.5mb 58f 59f
1:12 10 13 mph 1012.5mb 58f 59f
1:06 11 14 mph 1012.5mb 58f 59f
1:00 14 18 mph 1012.5mb 58f 59f
12:54 13 17 mph 1012.4mb 58f 59f
12:48 14 17 mph 1012.3mb 58f 59f
12:36 15 18 mph 1012.3mb 58f 59f
12:30 14 16 mph 1012.2mb 58f 59f
12:24 13 16 mph 1012.2mb 58f 59f
12:18 14 17 mph 1012.1mb 58f 59f
12:12 11 16 mph 1012.1mb 58f 59f
12:06 10 11 mph 1012mb 58f 59f
12:00 10 13 mph 1011.9mb 58f 59f
11:54 10 13 mph 1011.8mb 58f 59f
11:48 2 10 mph 1011.7mb 58f 59f
11:36 8 13 mph 1011.6mb 58f 58f
11:30 11 20 mph 1011.5mb 58f 58f
11:24 13 16 mph 1011.5mb 58f 58f
11:18 10 17 mph 1011.5mb 58f 58f
11:12 10 17 mph 1011.4mb 58f 58f
11:06 14 18 mph 1011.4mb 58f 58f
11:00 10 18 mph 1011.3mb 58f 58f
10:54 13 22 mph 1011.3mb 58f 58f
10:48 13 18 mph 1011.3mb 58f 58f
10:36 9 20 mph 1011.2mb 58f 58f
10:30 9 17 mph 1011.2mb 58f 58f
10:24 10 20 mph 1011.2mb 58f 58f
10:18 10 18 mph 1011.1mb 58f 58f
10:12 9 17 mph 1011.2mb 58f 58f
10:06 9 20 mph 1011.2mb 58f 58f
10:00 9 18 mph 1011.2mb 58f 57f
9:54 10 21 mph 1011.2mb 58f 57f
9:48 9 15 mph 1011.2mb 58f 57f
9:36 8 14 mph 1011.1mb 58f 57f
9:30 7 16 mph 1011.1mb 58f 57f
9:24 9 17 mph 1011.2mb 58f 57f
9:18 7 14 mph 1011.2mb 58f 57f
9:12 8 17 mph 1011.2mb 58f 57f
9:06 6 11 mph 1011.2mb 58f 57f
9:00 8 14 mph 1011.2mb 58f 57f
8:54 9 14 mph 1011.2mb 58f 57f
8:48 8 10 mph 1011.2mb 58f 57f
8:36 7 15 mph 1011.2mb 58f 57f
8:30 11 17 mph 1011.2mb 58f 57f
8:24 10 15 mph 1011.2mb 58f 57f
8:18 7 15 mph 1011.2mb 58f 57f
8:12 9 15 mph 1011.3mb 58f 57f
8:06 7 11 mph 1011.3mb 58f 57f
8:00 8 14 mph 1011.4mb 58f 57f
7:54 7 13 mph 1011.4mb 58f 57f
7:48 6 11 mph 1011.4mb 58f 56f
7:36 2 8 mph 1011.4mb 58f 56f
7:30 2 7 mph 1011.4mb 58f 56f
7:24 3 6 mph 1011.4mb 58f 56f
7:18 3 7 mph 1011.4mb 58f 55f
7:12 5 7 mph 1011.4mb 58f 55f
7:06 5 6 mph 1011.4mb 58f 55f
7:00 5 6 mph 1011.3mb 58f 55f
6:54 5 6 mph 1011.3mb 58f 54f
6:48 5 6 mph 1011.3mb 58f 54f
6:36 6
mph
1011.4mb 58f 54f
6:30 6 7 mph 1011.5mb 58f 54f
6:24 5 6 mph 1011.6mb 58f 54f
6:18 5 6 mph 1011.6mb 58f 54f
6:12 5 6 mph 1011.5mb 58f 53f
6:06 5 6 mph 1011.6mb 58f 53f
6:00 5 8 mph 1011.6mb 58f 53f
5:54 6 8 mph 1011.4mb 58f 53f
5:48 7 8 mph 1011.3mb 58f 53f
5:36 6 8 mph 1011.4mb 58f 53f
5:30 7 9 mph 1011.4mb 58f 53f
5:24 7 9 mph 1011.3mb 58f 53f
5:18 8 9 mph 1011.4mb 58f 53f
5:12 7 9 mph 1011.5mb 58f 53f
5:06 8 10 mph 1011.5mb 58f 53f
5:00 8 9 mph 1011.5mb 58f 53f
4:54 8 9 mph 1011.6mb 58f 53f
4:48 8 9 mph 1011.6mb 58f 52f
4:36 7 9 mph 1011.7mb 58f 52f
4:30 8 9 mph 1011.9mb 58f 52f
4:24 7 9 mph 1011.9mb 58f 52f
4:18 7 8 mph 1011.9mb 58f 52f
4:12 7 8 mph 1011.9mb 58f 52f
4:06 6 8 mph 1012mb 58f 53f
4:00 7 8 mph 1012.1mb 58f 53f
3:54 6 7 mph 1012.2mb 58f 53f
3:48 6 8 mph 1012.2mb 58f 53f
3:36 6
mph
1012.4mb 58f 53f
3:30 5 6 mph 1012.4mb 58f 53f
3:24 5 6 mph 1012.5mb 58f 53f
3:18 2 6 mph 1012.6mb 58f 53f
3:12 5 6 mph 1012.4mb 58f 52f
3:06 3 8 mph 1012.3mb 58f 52f
3:00 6 8 mph 1012.2mb 58f 52f
2:54 6 7 mph 1012.3mb 58f 53f
2:48 5 6 mph 1012.4mb 58f 52f
2:36 3 6 mph 1012.5mb 58f 52f
2:30 3 7 mph 1012.4mb 58f 52f
2:24 6 7 mph 1012.3mb 58f 52f
2:18 6 8 mph 1012.3mb 58f 52f
2:12 6 9 mph 1012.3mb 58f 52f
2:06 6 8 mph 1012.4mb 58f 52f
2:00 6 8 mph 1012.5mb 58f 52f
1:54 6 7 mph 1012.5mb 58f 52f
1:48 6 7 mph 1012.4mb 58f 52f
1:36 6 8 mph 1012.5mb 58f 52f
1:30 5 7 mph 1012.5mb 58f 52f
1:24 3 8 mph 1012.5mb 58f 52f
1:18 7 8 mph 1012.5mb 58f 52f
1:12 6 8 mph 1012.5mb 58f 52f
1:06 7 9 mph 1012.5mb 58f 52f
1:00 6 8 mph 1012.6mb 58f 52f
12:54 7 8 mph 1012.6mb 58f 53f
12:48 6 7 mph 1012.7mb 58f 53f
12:36 6 7 mph 1012.9mb 58f 52f
12:30 6 8 mph 1012.9mb 58f 52f
12:24 6
mph
1013mb 58f 52f
12:18 6 7 mph 1013mb 58f 52f
12:12 5 6 mph 1013mb 58f 52f
12:06 6 7 mph 1012.9mb 58f 53f
12:00 6 7 mph 1012.8mb 58f 52f
dom 09/28 11:54 6
mph
1012.9mb 58f 52f
11:48 6 7 mph 1012.9mb 58f 52f
11:36 5 6 mph 1012.9mb 59f 52f
11:30 5 6 mph 1012.9mb 59f 52f
11:24 3
mph
1013.1mb 59f 52f
11:18 2 3 mph 1013.2mb 59f 52f
11:12 2 3 mph 1013.2mb 59f 52f
11:06 2 3 mph 1013.2mb 59f 52f
11:00 1 3 mph 1013.3mb 59f 52f
10:54 2 5 mph 1013.2mb 59f 52f
10:48 2 6 mph 1013mb 59f 52f
10:36 3 5 mph 1012.9mb 59f 53f
10:30 6
mph
1012.9mb 59f 52f
10:24 3 5 mph 1012.9mb 60f 53f
10:18 3
mph
1012.9mb 60f 53f
10:12 2 3 mph 1013mb 60f 54f
10:06 5
mph
1013mb 60f 53f
10:00 5
mph
1013.1mb 60f 52f
9:54 2 3 mph 1013.1mb 60f 54f
9:48 3
mph
1013mb 60f 55f
9:36 2 3 mph 1013.1mb 60f 55f
9:30 2
mph
1013.2mb 60f 55f
9:24  -  2 mph 1013.4mb 60f 55f
9:18  -  1 mph 1013.3mb 60f 55f
9:12  -  1 mph 1013.3mb 60f 55f
9:06  -  2 mph 1013.3mb 60f 55f
9:00 1 2 mph 1013.2mb 60f 55f
8:54 2
mph
1013.2mb 60f 54f
8:48 2
mph
1013.2mb 60f 54f
8:36  -  1 mph 1013.2mb 60f 55f
8:30 1
mph
1013.2mb 59f 54f
8:24  -  1 mph 1013.3mb 59f 55f
8:18  -  2 mph 1013.3mb 59f 55f
8:12 2
mph
1013.2mb 59f 55f
8:06 1 2 mph 1013.3mb 59f 55f
8:00 1 2 mph 1013.3mb 59f 56f
7:54 1 3 mph 1013.3mb 59f 55f
7:48 1 2 mph 1013.3mb 58f 55f
7:36  -  2 mph 1013.4mb 58f 56f
7:30 1 5 mph 1013.4mb 58f 56f
7:24 3 5 mph 1013.3mb 58f 56f
7:18 3
mph
1013.4mb 58f 57f
7:12  -  1 mph 1013.5mb 58f 57f
7:06  -  1 mph 1013.5mb 58f 57f
7:00 2 5 mph 1013.4mb 58f 57f
6:54 5 7 mph 1013.4mb 58f 58f
6:48 6 8 mph 1013.6mb 58f 58f
6:36 8 10 mph 1013.7mb 58f 57f
6:30 7 8 mph 1013.8mb 58f 57f
6:24 8
mph
1013.9mb 58f 58f
6:18 6 8 mph 1013.9mb 58f 58f
6:12 6
mph
1014mb 58f 58f
6:06 6
mph
1014mb 58f 58f
6:00 5 6 mph 1014.1mb 58f 58f
5:54 3 5 mph 1014.1mb 58f 59f
5:48 2 3 mph 1014.1mb 58f 60f
5:36 2 3 mph 1014.1mb 58f 59f
5:30 2 3 mph 1014.2mb 58f 59f
5:24 2
mph
1014.3mb 58f 59f
5:18  -  1 mph 1014.3mb 58f 59f
5:12  -  2 mph 1014.4mb 58f 58f
5:06 2 3 mph 1014.4mb 58f 57f
5:00 2 3 mph 1014.5mb 58f 57f
4:54 2
mph
1014.6mb 58f 58f
4:48  -  1 mph 1014.6mb 58f 58f
4:36  -  mph 1014.7mb 58f 56f
4:30  -  1 mph 1014.7mb 58f 56f
4:24  -  1 mph 1014.7mb 58f 56f
4:18  -  1 mph 1014.7mb 58f 55f
4:12 2
mph
1014.7mb 58f 55f
4:06  -  2 mph 1014.8mb 58f 55f
4:00 2 5 mph 1014.9mb 58f 55f
3:54 3 6 mph 1014.9mb 58f 55f
3:48 5 6 mph 1015mb 58f 55f
3:36 5 8 mph 1015mb 58f 54f
3:30 7 8 mph 1015.1mb 58f 55f
3:24 6 8 mph 1015.1mb 58f 55f
3:18 7 8 mph 1015.1mb 58f 55f
3:12 6 10 mph 1015.1mb 58f 55f
3:06 8 9 mph 1015.1mb 58f 55f
3:00 6 8 mph 1015.1mb 58f 55f
2:54 6 8 mph 1015.1mb 58f 55f
2:48 6 7 mph 1015.1mb 58f 55f
2:36 6 8 mph 1015.1mb 58f 55f
2:30 6 7 mph 1015.1mb 58f 55f
2:24 6 7 mph 1015mb 58f 55f
2:18 5 7 mph 1015.1mb 58f 55f
2:12 6 7 mph 1015.3mb 58f 55f
2:06 6 8 mph 1015.3mb 58f 55f
2:00 6 8 mph 1015.3mb 58f 55f
1:54 7 9 mph 1015.4mb 58f 55f
1:48 8 10 mph 1015.5mb 58f 55f
1:36 8 10 mph 1015.6mb 58f 55f
1:30 8 10 mph 1015.6mb 58f 55f
1:24 7 9 mph 1015.6mb 58f 56f
1:18 5 8 mph 1015.7mb 58f 55f
1:12 7 9 mph 1015.8mb 58f 55f
1:06 6 9 mph 1015.8mb 58f 55f
1:00 5 6 mph 1015.8mb 58f 55f
12:54 5 8 mph 1015.9mb 58f 54f
12:48 6 8 mph 1015.9mb 58f 54f
12:36 8 9 mph 1015.9mb 58f 54f
12:30 7 9 mph 1015.8mb 58f 54f
12:24 7 8 mph 1015.8mb 58f 55f
12:18 6 8 mph 1015.8mb 58f 55f
12:12 7 9 mph 1015.8mb 58f 56f
12:06 5 6 mph 1015.7mb 58f 55f
12:00 2 5 mph 1015.6mb 58f 55f
11:54 3 5 mph 1015.7mb 58f 56f
11:48 3 5 mph 1015.8mb 58f 55f
11:36 6
mph
1016mb 58f 56f
11:30 5 6 mph 1016mb 58f 56f
11:24 3
mph
1016.1mb 58f 56f
11:18 3 5 mph 1016.1mb 58f 56f
11:12 3 5 mph 1016.2mb 58f 56f
11:06 3 5 mph 1016.3mb 58f 56f
11:00 3 5 mph 1016.3mb 58f 56f
10:54 2 3 mph 1016.2mb 58f 56f
10:48 1 2 mph 1016.3mb 58f 56f
10:36 2 5 mph 1016.4mb 58f 55f
10:30 3
mph
1016.4mb 58f 55f
10:24 3
mph
1016.4mb 58f 56f
10:18 3 5 mph 1016.5mb 58f 57f
10:12 1 2 mph 1016.5mb 58f 56f
10:06 1 5 mph 1016.5mb 58f 55f
10:00  -  5 mph 1016.5mb 58f 54f
9:54 5 7 mph 1016.6mb 58f 54f
9:48 5 7 mph 1016.6mb 58f 53f
9:36 5 7 mph 1016.5mb 58f 52f
9:30 6 7 mph 1016.6mb 58f 51f
9:24 7 8 mph 1016.7mb 59f 51f
9:18 6 9 mph 1016.6mb 59f 50f
9:12 7 9 mph 1016.7mb 59f 50f
9:06 6 8 mph 1016.7mb 59f 50f
9:00 7 9 mph 1016.7mb 59f 49f
8:54 7 11 mph 1016.6mb 59f 49f
8:48 8 10 mph 1016.7mb 59f 48f
8:36 7 10 mph 1016.7mb 59f 48f
8:30 8 10 mph 1016.7mb 59f 48f
8:24 8 10 mph 1016.8mb 59f 48f
8:18 8 10 mph 1016.9mb 59f 47f
8:12 9 11 mph 1016.8mb 59f 47f
8:06 8 9 mph 1016.9mb 59f 47f
8:00 9 10 mph 1016.9mb 59f 47f
7:54 7 10 mph 1017mb 59f 47f
7:48 6 8 mph 1016.9mb 59f 47f
7:36 7 9 mph 1016.8mb 59f 47f
7:30 6 7 mph 1016.8mb 59f 47f
7:24 5 7 mph 1016.9mb 59f 47f